Time;durP1;ratioP1;P1;durP2;ratioP2;P2;SDS_P1;SDS_P2;PMS_P1;PMS_P2;Temp;Humidity;BMP_temperature;BMP_pressure;BME280_temperature;BME280_humidity;BME280_pressure;Samples;Min_cycle;Max_cycle;Signal;HPM_P1;HPM_P2
2022/11/03 00:00:02;;;;;;;3.60;1.97;;;7.50;99.90;;;;;;461407;257;28593;-69
2022/11/03 00:02:03;;;;;;;3.03;1.87;;;7.50;99.90;;;;;;461433;257;29278;-69
2022/11/03 00:04:04;;;;;;;3.00;2.13;;;7.50;99.90;;;;;;461438;257;28408;-69
2022/11/03 00:06:06;;;;;;;4.50;2.13;;;7.50;99.90;;;;;;461445;257;28395;-69
2022/11/03 00:08:07;;;;;;;2.20;2.00;;;7.60;99.90;;;;;;461433;257;28472;-69
2022/11/03 00:10:08;;;;;;;3.00;2.33;;;7.60;99.90;;;;;;461384;257;28386;-69
2022/11/03 00:12:09;;;;;;;4.60;1.90;;;7.50;99.90;;;;;;461428;257;28090;-69
2022/11/03 00:14:10;;;;;;;4.17;2.87;;;7.50;99.90;;;;;;461426;257;27903;-69
2022/11/03 00:16:12;;;;;;;2.23;2.07;;;7.50;99.90;;;;;;461447;257;28187;-69
2022/11/03 00:18:13;;;;;;;3.37;2.00;;;7.50;99.90;;;;;;461422;257;29037;-69
2022/11/03 00:20:14;;;;;;;3.07;1.80;;;7.40;99.90;;;;;;461416;258;28955;-69
2022/11/03 00:22:15;;;;;;;1.93;1.73;;;7.40;99.90;;;;;;461433;257;27994;-69
2022/11/03 00:24:17;;;;;;;3.60;2.17;;;7.40;99.90;;;;;;461418;257;28166;-69
2022/11/03 00:26:19;;;;;;;3.07;2.27;;;7.40;99.90;;;;;;461419;257;27983;-70
2022/11/03 00:28:19;;;;;;;1.80;1.70;;;7.20;99.90;;;;;;461351;257;28149;-69
2022/11/03 00:30:20;;;;;;;6.27;2.10;;;7.10;99.90;;;;;;461413;257;27692;-69
2022/11/03 00:32:22;;;;;;;2.20;1.73;;;7.10;99.90;;;;;;461440;257;27708;-70
2022/11/03 00:34:23;;;;;;;1.80;1.70;;;7.20;99.90;;;;;;461419;257;28173;-69
2022/11/03 00:36:24;;;;;;;2.70;1.87;;;7.20;99.90;;;;;;461369;257;28037;-69
2022/11/03 00:38:25;;;;;;;4.43;1.93;;;7.30;99.90;;;;;;461445;257;28431;-69
2022/11/03 00:40:27;;;;;;;1.90;1.80;;;7.30;99.90;;;;;;461445;257;28247;-69
2022/11/03 00:42:28;;;;;;;2.10;1.97;;;7.30;99.90;;;;;;461440;257;28641;-70
2022/11/03 00:44:29;;;;;;;1.93;1.70;;;7.40;99.90;;;;;;461452;257;29041;-69
2022/11/03 00:46:33;;;;;;;2.20;2.00;;;7.40;99.90;;;;;;461443;257;28175;-69
2022/11/03 00:48:32;;;;;;;2.37;2.10;;;7.40;99.90;;;;;;461289;257;28920;-69
2022/11/03 00:50:33;;;;;;;2.87;2.03;;;7.40;99.90;;;;;;461427;257;29438;-69
2022/11/03 00:52:34;;;;;;;5.90;2.33;;;7.30;99.90;;;;;;461438;257;28170;-70
2022/11/03 00:54:35;;;;;;;2.13;2.03;;;7.40;99.90;;;;;;461417;257;28385;-69
2022/11/03 00:56:37;;;;;;;3.33;1.90;;;7.40;99.90;;;;;;461422;257;27931;-70
2022/11/03 00:58:38;;;;;;;2.10;2.00;;;7.40;99.90;;;;;;461428;257;28025;-69
2022/11/03 01:00:39;;;;;;;2.80;2.03;;;7.40;99.90;;;;;;461408;257;27684;-69
2022/11/03 01:02:40;;;;;;;1.80;1.70;;;7.40;99.90;;;;;;461424;257;28067;-69
2022/11/03 01:07:01;;;;;;;1.40;1.40;;;7.40;99.90;;;;;;461422;257;27886;-70
2022/11/03 01:09:02;;;;;;;2.10;2.00;;;7.40;99.90;;;;;;461419;258;27699;-69
2022/11/03 01:13:23;;;;;;;2.00;1.80;;;7.50;99.90;;;;;;461421;257;27987;-69
2022/11/03 01:15:24;;;;;;;5.03;2.20;;;7.50;99.90;;;;;;461401;257;28071;-69
2022/11/03 01:17:26;;;;;;;6.53;2.60;;;7.60;99.90;;;;;;461418;257;28029;-70
2022/11/03 01:19:27;;;;;;;4.00;2.00;;;7.60;99.90;;;;;;461419;257;28586;-70
2022/11/03 01:21:28;;;;;;;6.23;2.33;;;7.60;99.90;;;;;;461424;257;28111;-69
2022/11/03 01:23:29;;;;;;;2.43;1.97;;;7.60;99.90;;;;;;461420;257;28641;-70
2022/11/03 01:25:31;;;;;;;6.32;2.20;;;7.60;99.90;;;;;;461428;257;28520;-69
2022/11/03 01:27:32;;;;;;;4.10;2.20;;;7.60;99.90;;;;;;461428;257;28109;-69
2022/11/03 01:29:33;;;;;;;4.33;2.03;;;7.60;99.90;;;;;;461425;257;28110;-71
2022/11/03 01:31:34;;;;;;;2.33;1.90;;;7.60;99.90;;;;;;461430;258;28022;-69
2022/11/03 01:33:36;;;;;;;2.53;1.80;;;7.60;99.90;;;;;;461425;257;27573;-70
2022/11/03 01:35:37;;;;;;;4.57;1.90;;;7.50;99.90;;;;;;461388;257;28558;-70
2022/11/03 01:37:38;;;;;;;5.33;2.23;;;7.60;99.90;;;;;;461426;257;28052;-69
2022/11/03 01:39:39;;;;;;;2.73;1.80;;;7.60;99.90;;;;;;461424;257;28070;-71
2022/11/03 01:41:41;;;;;;;2.10;1.90;;;7.60;99.90;;;;;;461426;257;28052;-69
2022/11/03 01:43:42;;;;;;;3.23;2.10;;;7.60;99.90;;;;;;461429;257;27892;-70
2022/11/03 01:45:43;;;;;;;4.83;2.00;;;7.60;99.90;;;;;;461417;257;28099;-69
2022/11/03 01:47:44;;;;;;;2.60;1.80;;;7.70;99.90;;;;;;461404;257;28132;-69
2022/11/03 01:49:46;;;;;;;3.60;1.87;;;7.70;99.90;;;;;;461372;257;27932;-69
2022/11/03 01:51:47;;;;;;;5.00;2.20;;;7.70;99.90;;;;;;461424;257;27541;-69
2022/11/03 01:53:48;;;;;;;2.40;2.20;;;7.70;99.90;;;;;;461417;257;28598;-71
2022/11/03 01:55:49;;;;;;;2.80;1.97;;;7.70;99.90;;;;;;461400;257;28197;-69
2022/11/03 01:57:51;;;;;;;2.23;1.90;;;7.70;99.90;;;;;;461411;257;28765;-69
2022/11/03 01:59:52;;;;;;;2.30;2.10;;;7.60;99.90;;;;;;461431;257;28370;-70
2022/11/03 02:01:53;;;;;;;3.00;2.07;;;7.60;99.90;;;;;;461446;257;28112;-69
2022/11/03 02:03:54;;;;;;;2.07;1.90;;;7.60;99.90;;;;;;461433;257;28527;-69
2022/11/03 02:05:56;;;;;;;1.70;1.60;;;7.60;99.90;;;;;;461429;257;28018;-70
2022/11/03 02:07:57;;;;;;;2.03;1.80;;;7.70;99.90;;;;;;461429;257;27536;-69
2022/11/03 02:09:58;;;;;;;2.90;1.90;;;7.70;99.90;;;;;;461420;257;28145;-70
2022/11/03 02:12:05;;;;;;;2.87;1.77;;;7.70;99.90;;;;;;461422;257;27532;-69
2022/11/03 02:14:07;;;;;;;2.03;1.67;;;7.70;99.90;;;;;;461391;257;28028;-70
2022/11/03 02:16:08;;;;;;;1.50;1.40;;;7.70;99.90;;;;;;461394;257;28037;-69
2022/11/03 02:18:10;;;;;;;4.27;2.00;;;7.80;99.90;;;;;;461401;257;27891;-69
2022/11/03 02:20:10;;;;;;;1.83;1.70;;;7.80;99.90;;;;;;461421;257;27567;-70
2022/11/03 02:22:12;;;;;;;2.40;2.20;;;7.80;99.90;;;;;;461398;257;27896;-69
2022/11/03 02:24:13;;;;;;;3.50;1.80;;;7.80;99.90;;;;;;461369;257;28139;-69
2022/11/03 02:26:14;;;;;;;2.80;1.80;;;7.90;99.90;;;;;;461435;257;28025;-69
2022/11/03 02:28:15;;;;;;;4.10;1.90;;;7.90;99.90;;;;;;461407;257;28047;-69
2022/11/03 02:30:17;;;;;;;4.50;2.00;;;7.90;99.90;;;;;;461419;257;28260;-71
2022/11/03 02:32:18;;;;;;;1.90;1.80;;;7.90;99.90;;;;;;461426;257;28139;-69
2022/11/03 02:34:19;;;;;;;5.70;1.93;;;7.90;99.90;;;;;;461410;257;28562;-70
2022/11/03 02:36:20;;;;;;;2.03;1.93;;;7.90;99.90;;;;;;461340;257;28597;-69
2022/11/03 02:38:22;;;;;;;2.80;2.00;;;7.90;99.90;;;;;;461390;257;28783;-69
2022/11/03 02:40:23;;;;;;;1.60;1.50;;;7.90;99.90;;;;;;461421;257;28473;-70
2022/11/03 02:42:24;;;;;;;2.00;1.80;;;7.90;99.90;;;;;;461407;257;28397;-69
2022/11/03 02:44:25;;;;;;;2.00;1.90;;;7.90;99.90;;;;;;461402;257;28105;-69
2022/11/03 02:46:27;;;;;;;2.50;2.03;;;7.90;99.90;;;;;;461400;257;28998;-68
2022/11/03 02:48:28;;;;;;;2.70;2.00;;;7.90;99.90;;;;;;461412;257;28064;-69
2022/11/03 02:50:29;;;;;;;3.00;1.70;;;7.90;99.90;;;;;;461410;257;28165;-70
2022/11/03 02:52:30;;;;;;;4.60;2.07;;;8.00;99.90;;;;;;461446;257;27653;-69
2022/11/03 02:54:32;;;;;;;2.60;2.00;;;8.00;99.90;;;;;;461398;257;27822;-70
2022/11/03 02:56:33;;;;;;;3.17;2.13;;;8.10;99.90;;;;;;461410;257;28262;-69
2022/11/03 02:58:34;;;;;;;3.20;2.00;;;8.00;99.90;;;;;;461411;257;27987;-69
2022/11/03 03:00:35;;;;;;;3.60;1.93;;;8.00;99.90;;;;;;461404;257;28077;-69
2022/11/03 03:02:37;;;;;;;2.10;1.90;;;8.00;99.90;;;;;;461395;257;28638;-69
2022/11/03 03:04:38;;;;;;;3.17;2.20;;;8.00;99.90;;;;;;461417;257;28153;-69
2022/11/03 03:06:39;;;;;;;2.20;2.00;;;8.00;99.90;;;;;;461412;257;27927;-69
2022/11/03 03:08:40;;;;;;;2.70;1.60;;;8.00;99.90;;;;;;461406;257;28131;-69
2022/11/03 03:10:42;;;;;;;3.17;1.80;;;7.90;99.90;;;;;;461405;257;28828;-71
2022/11/03 03:12:43;;;;;;;2.00;1.90;;;7.90;99.90;;;;;;461381;257;29620;-69
2022/11/03 03:14:44;;;;;;;2.03;1.93;;;7.90;99.90;;;;;;461421;257;29086;-70
2022/11/03 03:16:45;;;;;;;5.40;1.77;;;7.90;99.90;;;;;;461442;257;28446;-69
2022/11/03 03:18:47;;;;;;;2.97;1.70;;;7.90;99.90;;;;;;461476;257;28526;-69
2022/11/03 03:20:48;;;;;;;1.77;1.67;;;7.90;99.90;;;;;;461421;257;29240;-69
2022/11/03 03:22:49;;;;;;;3.90;1.97;;;8.00;99.90;;;;;;461437;257;28009;-69
2022/11/03 03:24:51;;;;;;;3.10;1.77;;;7.90;99.90;;;;;;461473;257;28060;-70
2022/11/03 03:26:52;;;;;;;2.10;1.90;;;7.90;99.90;;;;;;461461;257;27909;-69
2022/11/03 03:28:53;;;;;;;1.93;1.73;;;7.90;99.90;;;;;;461478;257;27686;-70
2022/11/03 03:30:54;;;;;;;1.73;1.63;;;7.90;99.90;;;;;;461476;257;28178;-69
2022/11/03 03:32:55;;;;;;;4.00;2.10;;;7.90;99.90;;;;;;461467;257;27940;-69
2022/11/03 03:34:56;;;;;;;3.20;2.07;;;7.90;99.90;;;;;;461348;257;28055;-70
2022/11/03 03:36:58;;;;;;;2.67;1.53;;;7.90;99.90;;;;;;461427;257;28261;-69
2022/11/03 03:38:59;;;;;;;1.70;1.60;;;7.80;99.90;;;;;;461405;257;28282;-70
2022/11/03 03:41:01;;;;;;;2.27;1.53;;;7.80;99.90;;;;;;461417;257;28040;-69
2022/11/03 03:43:01;;;;;;;2.03;1.63;;;7.80;99.90;;;;;;461457;257;27988;-69
2022/11/03 03:45:03;;;;;;;2.30;2.07;;;7.80;99.90;;;;;;461490;257;27972;-71
2022/11/03 03:47:04;;;;;;;2.47;1.70;;;7.70;99.90;;;;;;461453;257;27984;-69
2022/11/03 03:49:05;;;;;;;2.60;1.80;;;7.70;99.90;;;;;;461462;257;28014;-69
2022/11/03 03:51:06;;;;;;;2.03;1.83;;;7.80;99.90;;;;;;461455;257;29047;-69
2022/11/03 03:53:08;;;;;;;1.93;1.80;;;7.80;99.90;;;;;;461443;257;28173;-69
2022/11/03 03:55:09;;;;;;;2.20;2.00;;;7.80;99.90;;;;;;461451;257;28492;-69
2022/11/03 03:57:10;;;;;;;2.20;2.00;;;7.80;99.90;;;;;;461463;257;28497;-69
2022/11/03 03:59:11;;;;;;;1.87;1.70;;;7.80;99.90;;;;;;461450;257;28600;-69
2022/11/03 04:01:13;;;;;;;2.07;1.97;;;7.80;99.90;;;;;;461457;257;28489;-69
2022/11/03 04:03:14;;;;;;;1.90;1.80;;;7.70;99.90;;;;;;461456;257;27680;-70
2022/11/03 04:05:15;;;;;;;2.00;1.90;;;7.70;99.90;;;;;;461461;257;28074;-70
2022/11/03 04:09:36;;;;;;;4.83;2.10;;;7.70;99.90;;;;;;461410;257;28142;-69
2022/11/03 04:23:15;;;;;;;2.83;1.80;;;7.60;99.90;;;;;;461418;257;28075;-69
2022/11/03 04:25:16;;;;;;;1.90;1.80;;;7.50;99.90;;;;;;461399;257;28770;-69
2022/11/03 04:27:17;;;;;;;2.43;2.10;;;7.30;99.90;;;;;;461370;257;28608;-69
2022/11/03 04:29:19;;;;;;;2.20;1.90;;;7.30;99.90;;;;;;461373;257;28380;-69
2022/11/03 04:31:20;;;;;;;1.70;1.60;;;7.30;99.90;;;;;;461399;257;27573;-70
2022/11/03 04:33:21;;;;;;;3.77;2.03;;;7.30;99.90;;;;;;461402;257;27562;-69
2022/11/03 04:35:22;;;;;;;1.60;1.50;;;7.30;99.90;;;;;;461412;257;28592;-69
2022/11/03 04:37:24;;;;;;;1.73;1.63;;;7.30;99.90;;;;;;461418;257;27584;-69
2022/11/03 04:39:25;;;;;;;1.73;1.63;;;7.30;99.90;;;;;;461422;257;27934;-69
2022/11/03 04:41:26;;;;;;;1.70;1.60;;;7.30;99.90;;;;;;461420;257;29194;-71
2022/11/03 04:43:27;;;;;;;2.50;2.27;;;7.30;99.90;;;;;;461414;257;27903;-69
2022/11/03 04:45:29;;;;;;;1.87;1.77;;;7.30;99.90;;;;;;461416;257;28189;-70
2022/11/03 04:47:30;;;;;;;1.67;1.57;;;7.30;99.90;;;;;;461349;257;28153;-69
2022/11/03 04:49:31;;;;;;;2.23;1.77;;;7.30;99.90;;;;;;461437;257;28452;-69
2022/11/03 04:51:32;;;;;;;1.63;1.43;;;7.30;99.90;;;;;;461412;257;29355;-71
2022/11/03 04:53:34;;;;;;;2.13;1.57;;;7.40;99.90;;;;;;461422;257;29161;-69
2022/11/03 04:55:35;;;;;;;1.70;1.60;;;7.40;99.90;;;;;;461290;257;29022;-70
2022/11/03 04:57:36;;;;;;;2.93;2.00;;;7.30;99.90;;;;;;461429;257;29357;-69
2022/11/03 04:59:37;;;;;;;2.60;2.03;;;7.30;99.90;;;;;;461368;257;28935;-70
2022/11/03 05:01:39;;;;;;;1.63;1.57;;;7.40;99.90;;;;;;461432;257;28033;-70
2022/11/03 05:03:40;;;;;;;1.90;1.80;;;7.40;99.90;;;;;;461424;257;28022;-69
2022/11/03 05:05:41;;;;;;;2.20;2.00;;;7.40;99.90;;;;;;461433;257;28018;-70
2022/11/03 05:07:42;;;;;;;2.35;1.58;;;7.40;99.90;;;;;;461468;257;27562;-69
2022/11/03 05:09:44;;;;;;;2.53;2.20;;;7.40;99.90;;;;;;461462;257;27655;-69
2022/11/03 05:11:45;;;;;;;2.00;1.80;;;7.40;99.90;;;;;;461414;257;28270;-69
2022/11/03 05:13:46;;;;;;;1.73;1.60;;;7.50;99.90;;;;;;461425;257;28261;-69
2022/11/03 05:15:47;;;;;;;3.90;1.87;;;7.50;99.90;;;;;;461411;257;28176;-70
2022/11/03 05:17:49;;;;;;;1.60;1.50;;;7.60;99.90;;;;;;461416;257;28482;-69
2022/11/03 05:19:50;;;;;;;1.70;1.53;;;7.70;99.90;;;;;;461404;257;27939;-69
2022/11/03 05:21:51;;;;;;;2.13;1.90;;;7.70;99.90;;;;;;461428;257;29430;-69
2022/11/03 05:23:52;;;;;;;2.40;2.20;;;7.70;99.90;;;;;;461418;257;28597;-69
2022/11/03 05:25:54;;;;;;;2.67;2.20;;;7.80;99.90;;;;;;461425;257;28597;-70
2022/11/03 05:27:55;;;;;;;2.23;2.03;;;7.80;99.90;;;;;;461424;257;28863;-69
2022/11/03 05:29:56;;;;;;;4.17;2.13;;;7.80;99.90;;;;;;461363;257;28412;-70
2022/11/03 05:31:57;;;;;;;3.03;2.30;;;7.80;99.90;;;;;;461419;257;28125;-69
2022/11/03 05:33:59;;;;;;;2.07;1.97;;;7.80;99.90;;;;;;461413;257;28230;-69
2022/11/03 05:36:00;;;;;;;3.93;2.10;;;7.80;99.90;;;;;;461369;257;28600;-70
2022/11/03 05:38:01;;;;;;;2.60;2.13;;;7.80;99.90;;;;;;461404;257;27867;-69
2022/11/03 05:40:03;;;;;;;2.07;1.97;;;7.80;99.90;;;;;;461426;257;28073;-70
2022/11/03 05:42:04;;;;;;;2.30;2.20;;;7.80;99.90;;;;;;461384;257;27931;-69
2022/11/03 05:44:05;;;;;;;2.90;1.93;;;7.80;99.90;;;;;;461418;257;28401;-69
2022/11/03 05:46:06;;;;;;;2.33;2.13;;;7.80;99.90;;;;;;461353;257;28186;-71
2022/11/03 05:48:07;;;;;;;3.23;2.23;;;7.70;99.90;;;;;;461329;257;28044;-69
2022/11/03 05:50:09;;;;;;;1.97;1.83;;;7.80;99.90;;;;;;461218;257;27727;-70
2022/11/03 05:52:10;;;;;;;3.70;1.80;;;7.80;99.90;;;;;;461246;257;27664;-69
2022/11/03 05:54:11;;;;;;;1.93;1.83;;;7.90;99.90;;;;;;461413;257;27777;-69
2022/11/03 05:56:12;;;;;;;1.80;1.70;;;7.90;99.90;;;;;;461409;257;27944;-69
2022/11/03 05:58:14;;;;;;;2.13;1.87;;;7.90;99.90;;;;;;461413;257;27994;-69
2022/11/03 06:00:15;;;;;;;2.60;2.17;;;8.00;99.90;;;;;;461400;257;28197;-69
2022/11/03 06:02:16;;;;;;;2.03;1.93;;;8.00;99.90;;;;;;461424;257;28535;-69
2022/11/03 06:04:17;;;;;;;2.53;2.27;;;8.00;99.90;;;;;;461417;257;28347;-69
2022/11/03 06:06:19;;;;;;;2.30;2.20;;;8.10;99.90;;;;;;461431;257;28411;-70
2022/11/03 06:08:20;;;;;;;2.27;2.07;;;8.10;99.90;;;;;;461429;257;28355;-70
2022/11/03 06:10:21;;;;;;;4.43;1.93;;;8.10;99.90;;;;;;461439;257;28436;-70
2022/11/03 06:12:22;;;;;;;3.63;2.40;;;8.10;99.90;;;;;;461457;257;28147;-69
2022/11/03 06:14:24;;;;;;;4.07;2.60;;;8.20;99.90;;;;;;461455;257;28095;-70
2022/11/03 06:16:25;;;;;;;5.17;2.80;;;8.20;99.90;;;;;;461430;257;27945;-71
2022/11/03 06:18:26;;;;;;;5.87;2.80;;;8.20;99.90;;;;;;461405;257;28193;-69
2022/11/03 06:20:27;;;;;;;2.53;2.37;;;8.20;99.90;;;;;;461420;257;28186;-70
2022/11/03 06:22:29;;;;;;;2.73;2.53;;;8.10;99.90;;;;;;461416;257;28040;-69
2022/11/03 06:24:30;;;;;;;2.83;2.07;;;8.10;99.90;;;;;;461410;257;27964;-69
2022/11/03 06:26:31;;;;;;;5.57;2.57;;;8.10;99.90;;;;;;461406;257;28051;-69
2022/11/03 06:28:32;;;;;;;2.67;2.47;;;8.10;99.90;;;;;;461416;257;27722;-70
2022/11/03 06:30:34;;;;;;;3.67;2.70;;;8.10;99.90;;;;;;461423;257;27579;-70
2022/11/03 06:32:35;;;;;;;2.63;2.53;;;8.10;99.90;;;;;;461415;257;28146;-70
2022/11/03 06:34:36;;;;;;;4.33;2.60;;;8.20;99.90;;;;;;461409;257;27719;-69
2022/11/03 06:36:37;;;;;;;5.87;2.83;;;8.20;99.90;;;;;;461395;257;27806;-70
2022/11/03 06:38:39;;;;;;;5.50;2.50;;;8.30;99.90;;;;;;461415;257;28031;-70
2022/11/03 06:40:40;;;;;;;2.60;2.40;;;8.30;99.90;;;;;;461421;257;28551;-70
2022/11/03 06:42:41;;;;;;;4.97;3.10;;;8.30;99.90;;;;;;461433;257;29286;-69
2022/11/03 06:44:42;;;;;;;4.40;2.63;;;8.30;99.90;;;;;;461410;257;28460;-70
2022/11/03 06:46:44;;;;;;;3.40;2.43;;;8.30;99.90;;;;;;461426;257;28549;-70
2022/11/03 06:48:45;;;;;;;2.50;2.30;;;8.30;99.90;;;;;;461410;256;28480;-69
2022/11/03 06:50:46;;;;;;;3.00;2.60;;;8.30;99.90;;;;;;461416;257;28502;-69
2022/11/03 06:52:47;;;;;;;4.70;2.40;;;8.30;99.90;;;;;;461426;257;28057;-69
2022/11/03 06:54:49;;;;;;;2.53;2.33;;;8.40;99.90;;;;;;461423;257;27770;-70
2022/11/03 06:56:50;;;;;;;4.33;2.50;;;8.50;99.90;;;;;;461359;257;28060;-70
2022/11/03 06:58:51;;;;;;;4.30;2.57;;;8.50;99.90;;;;;;461423;257;28002;-69
2022/11/03 07:00:52;;;;;;;2.63;2.43;;;8.50;99.90;;;;;;461436;257;28113;-71
2022/11/03 07:02:55;;;;;;;2.40;2.20;;;8.50;99.90;;;;;;461105;257;28113;-69
2022/11/03 07:04:55;;;;;;;2.60;2.40;;;8.50;99.90;;;;;;461376;257;28006;-69
2022/11/03 07:06:56;;;;;;;3.60;2.43;;;8.50;99.90;;;;;;461409;257;28104;-71
2022/11/03 07:08:57;;;;;;;4.17;2.70;;;8.50;99.90;;;;;;461416;257;27924;-69
2022/11/03 07:10:59;;;;;;;2.70;2.50;;;8.50;99.90;;;;;;461439;257;28016;-69
2022/11/03 07:13:00;;;;;;;2.20;2.10;;;8.60;99.90;;;;;;461473;257;27890;-69
2022/11/03 07:15:01;;;;;;;2.60;2.40;;;8.60;99.90;;;;;;461431;257;28029;-70
2022/11/03 07:17:02;;;;;;;2.90;2.30;;;8.60;99.90;;;;;;461426;257;28200;-71
2022/11/03 07:19:04;;;;;;;2.80;2.20;;;8.60;99.90;;;;;;461427;257;27985;-69
2022/11/03 07:21:05;;;;;;;2.00;1.90;;;8.70;99.90;;;;;;461417;257;28518;-69
2022/11/03 07:23:06;;;;;;;5.00;2.30;;;8.70;99.90;;;;;;461421;257;28429;-69
2022/11/03 07:25:07;;;;;;;2.23;2.13;;;8.80;99.90;;;;;;461392;257;28510;-70
2022/11/03 07:27:09;;;;;;;3.80;2.10;;;8.80;99.90;;;;;;461419;257;28452;-70
2022/11/03 07:29:11;;;;;;;2.83;2.63;;;8.80;99.90;;;;;;461418;257;28502;-70
2022/11/03 07:31:11;;;;;;;2.97;2.67;;;8.90;99.90;;;;;;461384;257;28074;-70
2022/11/03 07:33:12;;;;;;;2.70;2.50;;;9.00;99.90;;;;;;461411;257;27904;-69
2022/11/03 07:35:14;;;;;;;3.20;2.37;;;9.00;99.90;;;;;;461416;257;28044;-69
2022/11/03 07:37:15;;;;;;;3.97;1.90;;;9.00;99.90;;;;;;461400;257;28158;-71
2022/11/03 07:39:16;;;;;;;2.40;2.23;;;9.00;99.90;;;;;;461413;257;28463;-69
2022/11/03 07:41:17;;;;;;;2.53;2.33;;;9.00;99.90;;;;;;461418;257;27962;-70
2022/11/03 07:43:19;;;;;;;2.60;2.40;;;9.00;99.90;;;;;;461417;257;28033;-70
2022/11/03 07:45:20;;;;;;;2.27;2.17;;;9.10;99.90;;;;;;461376;257;28130;-69
2022/11/03 07:47:21;;;;;;;2.43;2.03;;;9.10;99.90;;;;;;461401;257;28038;-70
2022/11/03 07:49:22;;;;;;;2.80;2.07;;;9.10;99.90;;;;;;461401;257;27904;-69
2022/11/03 07:51:24;;;;;;;2.30;2.20;;;9.20;99.90;;;;;;461405;257;27885;-70
2022/11/03 07:53:25;;;;;;;2.10;2.00;;;9.20;99.90;;;;;;461423;257;28216;-69
2022/11/03 07:55:26;;;;;;;2.50;2.30;;;9.20;99.90;;;;;;461408;257;28430;-69
2022/11/03 07:57:29;;;;;;;2.87;2.40;;;9.20;99.90;;;;;;461419;257;27678;-70
2022/11/03 07:59:29;;;;;;;3.97;2.40;;;9.20;99.90;;;;;;461339;257;28603;-70
2022/11/03 08:01:30;;;;;;;3.27;2.43;;;9.30;99.90;;;;;;461407;257;28423;-69
2022/11/03 08:03:31;;;;;;;3.90;2.50;;;9.40;99.90;;;;;;461424;257;29244;-70
2022/11/03 08:05:32;;;;;;;2.50;2.30;;;9.40;99.90;;;;;;461438;257;28330;-70
2022/11/03 08:07:34;;;;;;;2.50;2.40;;;9.50;99.90;;;;;;461423;257;28177;-70
2022/11/03 08:09:35;;;;;;;2.80;2.60;;;9.60;99.90;;;;;;461446;257;28362;-70
2022/11/03 08:11:36;;;;;;;3.13;2.43;;;9.70;99.90;;;;;;461446;257;28056;-69
2022/11/03 08:13:37;;;;;;;2.83;2.63;;;9.80;99.90;;;;;;461434;257;28415;-71
2022/11/03 08:15:39;;;;;;;2.80;2.50;;;9.90;99.90;;;;;;461417;257;28377;-69
2022/11/03 08:17:40;;;;;;;4.93;2.93;;;10.00;99.90;;;;;;461406;257;28612;-70
2022/11/03 08:19:41;;;;;;;3.50;2.30;;;10.00;99.90;;;;;;461424;257;28669;-70
2022/11/03 08:21:43;;;;;;;2.23;2.13;;;10.10;99.90;;;;;;461432;257;28646;-70
2022/11/03 08:23:44;;;;;;;3.00;2.80;;;10.10;99.90;;;;;;461430;257;28064;-71
2022/11/03 08:25:45;;;;;;;2.73;2.50;;;10.30;99.90;;;;;;461447;257;27993;-70
2022/11/03 08:27:46;;;;;;;3.27;2.40;;;10.40;99.90;;;;;;461440;257;28154;-70
2022/11/03 08:29:48;;;;;;;2.30;2.20;;;10.40;99.90;;;;;;461431;257;28054;-70
2022/11/03 08:31:49;;;;;;;2.60;2.20;;;10.50;99.90;;;;;;461405;257;28065;-70
2022/11/03 08:33:50;;;;;;;2.87;2.67;;;10.60;99.90;;;;;;461436;257;28097;-71
2022/11/03 08:35:51;;;;;;;3.13;2.50;;;10.60;99.90;;;;;;461404;257;27777;-69
2022/11/03 08:37:53;;;;;;;4.70;2.47;;;10.60;99.90;;;;;;461415;257;28167;-70
2022/11/03 08:39:54;;;;;;;3.20;2.77;;;10.70;99.90;;;;;;461433;257;27991;-70
2022/11/03 08:41:55;;;;;;;3.07;2.53;;;10.70;99.90;;;;;;461419;257;28057;-70
2022/11/03 08:43:56;;;;;;;3.23;3.00;;;10.80;99.90;;;;;;461443;257;28059;-71
2022/11/03 08:45:58;;;;;;;3.00;2.80;;;10.80;99.90;;;;;;461402;257;28085;-70
2022/11/03 08:47:59;;;;;;;3.20;2.80;;;10.80;99.90;;;;;;461425;257;27994;-70
2022/11/03 08:50:00;;;;;;;6.30;3.03;;;10.80;99.90;;;;;;461427;257;27920;-70
2022/11/03 08:52:01;;;;;;;2.83;2.63;;;10.80;99.90;;;;;;461423;257;28658;-70
2022/11/03 08:54:03;;;;;;;4.60;2.97;;;10.80;99.90;;;;;;461428;257;28787;-70
2022/11/03 08:56:04;;;;;;;5.93;3.40;;;10.80;99.90;;;;;;461421;257;28634;-70
2022/11/03 08:58:05;;;;;;;3.20;2.50;;;10.80;99.90;;;;;;461331;257;28722;-70
2022/11/03 09:00:07;;;;;;;3.87;2.90;;;10.80;99.90;;;;;;461367;257;28114;-69
2022/11/03 09:02:08;;;;;;;3.20;2.77;;;10.80;99.90;;;;;;461430;257;28034;-70
2022/11/03 09:04:09;;;;;;;9.37;3.10;;;10.90;99.90;;;;;;461448;257;28140;-71
2022/11/03 09:06:10;;;;;;;4.90;3.40;;;10.80;99.90;;;;;;461443;257;28145;-70
2022/11/03 09:08:11;;;;;;;4.90;3.03;;;10.80;99.90;;;;;;461416;257;28082;-71
2022/11/03 09:10:13;;;;;;;4.07;2.60;;;10.80;99.90;;;;;;461415;257;28010;-70
2022/11/03 09:12:14;;;;;;;3.13;2.83;;;10.80;99.90;;;;;;461412;257;28059;-70
2022/11/03 09:14:16;;;;;;;2.73;2.53;;;10.90;99.90;;;;;;461430;257;28578;-71
2022/11/03 09:16:16;;;;;;;2.50;2.20;;;10.90;99.90;;;;;;461423;257;28027;-69
2022/11/03 09:18:18;;;;;;;3.50;2.87;;;10.90;99.90;;;;;;461420;257;28530;-70
2022/11/03 09:20:19;;;;;;;2.93;2.60;;;10.90;99.90;;;;;;461433;257;28691;-69
2022/11/03 09:22:21;;;;;;;4.63;2.90;;;11.00;99.90;;;;;;461408;257;28666;-70
2022/11/03 09:24:21;;;;;;;3.80;2.83;;;11.00;99.90;;;;;;461396;257;28230;-71
2022/11/03 09:26:23;;;;;;;6.03;1.90;;;11.00;99.90;;;;;;461412;257;28109;-70
2022/11/03 09:28:24;;;;;;;3.90;2.13;;;11.00;99.90;;;;;;461425;257;28316;-71
2022/11/03 09:30:25;;;;;;;3.17;2.37;;;11.10;99.90;;;;;;461418;257;28249;-69
2022/11/03 09:32:26;;;;;;;8.03;2.40;;;11.10;99.90;;;;;;461417;257;28305;-70
2022/11/03 09:34:28;;;;;;;2.80;2.33;;;11.10;99.90;;;;;;461432;257;28407;-70
2022/11/03 09:36:29;;;;;;;2.80;2.43;;;11.20;99.90;;;;;;461398;258;28171;-69
2022/11/03 09:38:30;;;;;;;2.43;2.23;;;11.20;99.90;;;;;;461398;257;28386;-70
2022/11/03 09:40:31;;;;;;;3.60;2.13;;;11.30;99.90;;;;;;461403;257;28103;-69
2022/11/03 09:42:33;;;;;;;2.60;2.10;;;11.40;99.90;;;;;;461424;257;28725;-70
2022/11/03 09:44:34;;;;;;;4.37;2.33;;;11.60;99.90;;;;;;461384;257;28748;-70
2022/11/03 09:46:35;;;;;;;4.17;2.60;;;11.70;99.90;;;;;;461423;257;28795;-70
2022/11/03 09:48:36;;;;;;;3.87;2.30;;;11.80;99.90;;;;;;461419;257;28409;-71
2022/11/03 09:50:38;;;;;;;3.60;2.27;;;11.80;99.90;;;;;;461410;257;28447;-70
2022/11/03 09:52:39;;;;;;;2.53;2.17;;;11.90;99.90;;;;;;461435;257;28353;-70
2022/11/03 09:54:40;;;;;;;3.70;2.40;;;11.90;99.90;;;;;;461417;257;28282;-70
2022/11/03 09:56:41;;;;;;;2.87;2.67;;;12.00;99.90;;;;;;461423;257;28211;-70
2022/11/03 09:58:43;;;;;;;4.00;2.70;;;12.00;99.90;;;;;;461398;257;28521;-70
2022/11/03 10:00:44;;;;;;;4.33;2.20;;;12.10;99.90;;;;;;461410;257;28241;-70
2022/11/03 10:02:45;;;;;;;6.57;2.57;;;12.10;99.90;;;;;;461416;257;28937;-70
2022/11/03 10:04:46;;;;;;;6.23;2.90;;;12.10;99.90;;;;;;461453;257;28657;-71
2022/11/03 10:06:48;;;;;;;3.80;2.30;;;12.10;99.90;;;;;;461404;257;28677;-70
2022/11/03 10:08:49;;;;;;;3.73;2.17;;;12.10;99.90;;;;;;461410;257;29205;-70
2022/11/03 10:10:50;;;;;;;3.30;2.27;;;12.10;99.90;;;;;;461405;257;29039;-70
2022/11/03 10:12:52;;;;;;;3.30;2.40;;;12.20;99.90;;;;;;461404;257;28165;-70
2022/11/03 10:14:53;;;;;;;3.10;2.50;;;12.20;99.90;;;;;;461417;257;28635;-71
2022/11/03 10:16:54;;;;;;;2.33;2.13;;;12.20;99.90;;;;;;461397;257;28482;-70
2022/11/03 10:18:55;;;;;;;4.70;2.63;;;12.20;99.90;;;;;;461396;257;28178;-70
2022/11/03 10:20:56;;;;;;;4.67;2.57;;;12.30;99.90;;;;;;461401;257;28129;-69
2022/11/03 10:22:58;;;;;;;2.67;2.43;;;12.30;99.90;;;;;;461390;257;29061;-69
2022/11/03 10:24:59;;;;;;;3.27;2.30;;;12.40;99.90;;;;;;461406;257;28537;-70
2022/11/03 10:27:01;;;;;;;4.03;2.47;;;;;;;;;;461428;257;28528;-70
2022/11/03 10:29:03;;;;;;;2.40;2.10;;;12.50;99.90;;;;;;461433;257;27334;-69
2022/11/03 10:31:07;;;;;;;2.23;2.03;;;12.50;99.90;;;;;;461413;257;28948;-70
2022/11/03 10:33:08;;;;;;;3.17;2.40;;;12.50;99.90;;;;;;461407;258;28690;-70
2022/11/03 10:35:09;;;;;;;2.50;2.20;;;12.50;99.90;;;;;;461424;257;28781;-71
2022/11/03 10:37:11;;;;;;;3.13;2.23;;;12.50;99.90;;;;;;461432;257;28851;-70
2022/11/03 10:39:12;;;;;;;4.20;2.43;;;12.50;99.90;;;;;;461420;252;28809;-70
2022/11/03 10:41:13;;;;;;;2.20;2.00;;;12.60;99.90;;;;;;461434;257;28849;-69
2022/11/03 10:43:14;;;;;;;2.87;2.37;;;12.60;99.90;;;;;;461428;257;28942;-70
2022/11/03 10:45:17;;;;;;;2.80;2.10;;;;;;;;;;461405;257;28957;-70
2022/11/03 10:47:18;;;;;;;2.13;2.03;;;12.50;99.90;;;;;;461457;257;27616;-71
2022/11/03 10:49:20;;;;;;;5.47;2.30;;;;;;;;;;461417;257;28886;-70
2022/11/03 10:51:23;;;;;;;2.80;2.33;;;;;;;;;;461407;257;27049;-70
2022/11/03 10:53:24;;;;;;;4.40;2.40;;;12.60;99.90;;;;;;461426;257;27219;-70
2022/11/03 10:55:25;;;;;;;2.70;2.10;;;12.60;99.90;;;;;;461415;257;28456;-70